createdAt,value
2023-04-29T00:00:09.140Z,7.82
2023-04-29T00:02:35.931Z,6.32
2023-04-29T00:02:52.581Z,6.32
2023-04-29T00:05:05.197Z,7.25
2023-04-29T00:07:36.480Z,6.30
2023-04-29T00:07:52.511Z,6.30
2023-04-29T00:10:03.338Z,7.43
2023-04-29T00:12:31.840Z,6.43
2023-04-29T00:12:52.486Z,6.43
2023-04-29T00:15:02.920Z,6.72
2023-04-29T00:17:29.352Z,7.18
2023-04-29T00:17:52.533Z,7.18
2023-04-29T00:19:55.730Z,7.13
2023-04-29T00:22:22.769Z,8.27
2023-04-29T00:22:52.506Z,8.27
2023-04-29T00:24:49.109Z,7.50
2023-04-29T00:27:16.783Z,8.43
2023-04-29T00:27:52.516Z,8.43
2023-04-29T00:29:43.834Z,8.55
2023-04-29T00:32:10.395Z,7.85
2023-04-29T00:32:52.536Z,7.85
2023-04-29T00:34:36.825Z,9.55
2023-04-29T00:37:03.328Z,9.73
2023-04-29T00:37:52.585Z,9.73
2023-04-29T00:39:29.698Z,8.85
2023-04-29T00:41:56.171Z,8.75
2023-04-29T00:42:52.469Z,8.75
2023-04-29T00:44:22.643Z,9.52
2023-04-29T00:46:49.052Z,9.50
2023-04-29T00:47:52.580Z,9.50
2023-04-29T00:49:15.774Z,9.88
2023-04-29T00:51:45.019Z,11.15
2023-04-29T00:52:52.537Z,11.15
2023-04-29T00:54:11.917Z,12.38
2023-04-29T00:56:41.804Z,11.43
2023-04-29T00:57:52.482Z,11.43
2023-04-29T00:59:10.115Z,11.20
2023-04-29T01:01:36.759Z,11.63
2023-04-29T01:02:52.544Z,11.63
2023-04-29T01:04:05.895Z,11.73
2023-04-29T01:06:44.636Z,12.82
2023-04-29T01:07:52.513Z,12.82
2023-04-29T01:09:21.559Z,12.23
2023-04-29T01:12:11.561Z,12.48
2023-04-29T01:12:52.483Z,12.48
2023-04-29T01:14:39.528Z,12.45
2023-04-29T01:17:18.184Z,12.40
2023-04-29T01:17:52.571Z,12.40
2023-04-29T01:19:48.451Z,12.50
2023-04-29T01:22:15.561Z,12.68
2023-04-29T01:22:52.520Z,12.68
2023-04-29T01:24:41.888Z,13.68
2023-04-29T01:27:28.641Z,10.40
2023-04-29T01:27:52.519Z,10.40
2023-04-29T01:30:26.803Z,13.57
2023-04-29T01:33:34.489Z,12.50
2023-04-29T01:33:34.660Z,12.50
2023-04-29T01:36:17.120Z,14.55
2023-04-29T01:37:52.489Z,14.55
2023-04-29T01:39:04.798Z,14.50
2023-04-29T01:41:44.610Z,12.00
2023-04-29T01:42:52.587Z,12.00
2023-04-29T01:44:18.553Z,15.45
2023-04-29T01:46:50.815Z,12.70
2023-04-29T01:47:52.515Z,12.70
2023-04-29T01:49:21.259Z,15.10
2023-04-29T01:51:47.609Z,13.48
2023-04-29T01:52:52.504Z,13.48
2023-04-29T01:54:13.976Z,13.65
2023-04-29T01:56:40.351Z,14.05
2023-04-29T01:57:52.492Z,14.05
2023-04-29T01:59:08.016Z,16.02
2023-04-29T02:01:34.510Z,13.15
2023-04-29T02:02:52.600Z,13.15
2023-04-29T02:04:00.937Z,13.48
2023-04-29T02:06:28.005Z,14.98
2023-04-29T02:07:52.535Z,14.98
2023-04-29T02:08:54.460Z,13.85
2023-04-29T02:11:21.126Z,15.48
2023-04-29T02:12:52.519Z,15.48
2023-04-29T02:13:47.551Z,16.40
2023-04-29T02:16:17.382Z,15.98
2023-04-29T02:17:52.591Z,15.98
2023-04-29T02:18:43.736Z,15.02
2023-04-29T02:21:10.202Z,13.98
2023-04-29T02:22:52.540Z,13.98
2023-04-29T02:23:36.611Z,13.88
2023-04-29T02:26:06.114Z,13.35
2023-04-29T02:27:52.531Z,13.35
2023-04-29T02:28:34.714Z,14.25
2023-04-29T02:31:01.184Z,16.08
2023-04-29T02:32:52.536Z,16.08
2023-04-29T02:33:27.962Z,13.95
2023-04-29T02:35:54.366Z,14.48
2023-04-29T02:37:52.548Z,14.48
2023-04-29T02:38:20.995Z,14.93
2023-04-29T02:40:47.687Z,14.82
2023-04-29T02:42:52.556Z,14.82
2023-04-29T02:43:14.061Z,16.20
2023-04-29T02:45:40.456Z,15.45
2023-04-29T02:47:52.581Z,15.45
2023-04-29T02:48:07.033Z,15.43
2023-04-29T02:50:33.669Z,13.70
2023-04-29T02:52:52.539Z,13.70
2023-04-29T02:53:00.056Z,15.63
2023-04-29T02:55:26.909Z,15.50
2023-04-29T02:57:53.345Z,16.38
2023-04-29T02:57:53.478Z,16.38
2023-04-29T03:00:23.585Z,15.20
2023-04-29T03:02:49.990Z,14.45
2023-04-29T03:02:52.584Z,14.45
2023-04-29T03:05:16.476Z,14.75
2023-04-29T03:07:44.332Z,14.68
2023-04-29T03:07:52.534Z,14.68
2023-04-29T03:10:11.523Z,14.05
2023-04-29T03:12:39.358Z,14.50
2023-04-29T03:12:52.576Z,14.50
2023-04-29T03:15:10.520Z,12.95
2023-04-29T03:17:37.230Z,12.45
2023-04-29T03:17:52.543Z,12.45
2023-04-29T03:20:04.691Z,13.18
2023-04-29T03:22:31.144Z,13.30
2023-04-29T03:22:52.543Z,13.30
2023-04-29T03:24:57.638Z,11.57
2023-04-29T03:27:24.068Z,11.10
2023-04-29T03:27:52.524Z,11.10
2023-04-29T03:29:50.675Z,14.63
2023-04-29T03:32:17.465Z,12.57
2023-04-29T03:32:52.546Z,12.57
2023-04-29T03:34:43.951Z,12.52
2023-04-29T03:37:10.406Z,11.00
2023-04-29T03:37:52.552Z,11.00
2023-04-29T03:39:36.877Z,12.93
2023-04-29T03:42:04.436Z,13.20
2023-04-29T03:42:52.552Z,13.20
2023-04-29T03:44:30.943Z,11.05
2023-04-29T03:46:57.257Z,11.80
2023-04-29T03:47:52.593Z,11.80
2023-04-29T03:49:23.776Z,13.15
2023-04-29T03:51:50.304Z,12.32
2023-04-29T03:52:52.534Z,12.32
2023-04-29T03:54:17.337Z,12.68
2023-04-29T03:56:43.778Z,11.95
2023-04-29T03:57:52.522Z,11.95
2023-04-29T03:59:10.338Z,9.90
2023-04-29T04:01:36.758Z,11.30
2023-04-29T04:02:52.669Z,11.30
2023-04-29T04:04:05.426Z,11.13
2023-04-29T04:06:31.972Z,12.10
2023-04-29T04:07:52.522Z,12.10
2023-04-29T04:08:58.431Z,14.00
2023-04-29T04:11:24.837Z,11.32
2023-04-29T04:12:52.525Z,11.32
2023-04-29T04:13:52.106Z,11.65
2023-04-29T04:16:18.577Z,13.98
2023-04-29T04:17:52.567Z,13.98
2023-04-29T04:18:44.989Z,11.48
2023-04-29T04:21:12.514Z,11.35
2023-04-29T04:22:52.525Z,11.35
2023-04-29T04:23:42.576Z,11.65
2023-04-29T04:26:09.073Z,13.48
2023-04-29T04:27:52.590Z,13.48
2023-04-29T04:28:35.665Z,12.05
2023-04-29T04:31:02.514Z,11.65
2023-04-29T04:32:52.556Z,11.65
2023-04-29T04:33:29.125Z,11.73
2023-04-29T04:35:55.478Z,10.88
2023-04-29T04:37:52.567Z,10.88
2023-04-29T04:38:25.185Z,12.15
2023-04-29T04:40:51.681Z,13.88
2023-04-29T04:42:54.057Z,13.88
2023-04-29T04:43:18.106Z,12.50
2023-04-29T04:45:44.567Z,10.50
2023-04-29T04:47:52.562Z,10.50
2023-04-29T04:48:10.992Z,9.55
2023-04-29T04:50:37.332Z,10.40
2023-04-29T04:52:52.525Z,10.40
2023-04-29T04:53:03.666Z,10.68
2023-04-29T04:55:31.627Z,10.20
2023-04-29T04:57:52.557Z,10.20
2023-04-29T04:57:58.570Z,10.02
2023-04-29T05:00:24.950Z,9.02
2023-04-29T05:02:51.964Z,9.75
2023-04-29T05:02:52.721Z,9.75
2023-04-29T05:05:18.566Z,9.38
2023-04-29T05:07:45.344Z,10.63
2023-04-29T05:07:52.541Z,10.63
2023-04-29T05:10:11.705Z,10.30
2023-04-29T05:12:38.203Z,10.63
2023-04-29T05:12:52.608Z,10.63
2023-04-29T05:15:04.871Z,9.95
2023-04-29T05:17:31.312Z,8.95
2023-04-29T05:17:52.560Z,8.95
2023-04-29T05:19:57.642Z,10.95
2023-04-29T05:22:24.084Z,11.48
2023-04-29T05:22:52.544Z,11.48
2023-04-29T05:24:51.553Z,9.05
2023-04-29T05:27:17.902Z,8.18
2023-04-29T05:27:52.557Z,8.18
2023-04-29T05:29:44.467Z,8.93
2023-04-29T05:32:11.483Z,9.57
2023-04-29T05:32:52.562Z,9.57
2023-04-29T05:34:37.940Z,8.15
2023-04-29T05:37:04.276Z,9.63
2023-04-29T05:37:52.553Z,9.63
2023-04-29T05:39:30.801Z,9.45
2023-04-29T05:41:57.173Z,8.88
2023-04-29T05:42:52.696Z,8.88
2023-04-29T05:44:23.517Z,8.90
2023-04-29T05:46:52.254Z,7.72
2023-04-29T05:47:52.699Z,7.72
2023-04-29T05:49:18.713Z,9.35
2023-04-29T05:51:45.365Z,8.48
2023-04-29T05:52:52.533Z,8.48
2023-04-29T05:54:11.906Z,9.32
2023-04-29T05:56:38.392Z,10.07
2023-04-29T05:57:52.537Z,10.07
2023-04-29T05:59:04.773Z,8.23
2023-04-29T06:01:31.465Z,7.93
2023-04-29T06:02:58.690Z,7.93
2023-04-29T06:03:58.045Z,9.43
2023-04-29T06:06:24.603Z,9.57
2023-04-29T06:07:52.556Z,9.57
2023-04-29T06:08:51.281Z,10.02
2023-04-29T06:11:17.684Z,8.88
2023-04-29T06:12:52.567Z,8.88
2023-04-29T06:13:44.439Z,8.07
2023-04-29T06:16:12.222Z,9.20
2023-04-29T06:17:52.557Z,9.20
2023-04-29T06:18:38.632Z,9.57
2023-04-29T06:21:05.324Z,8.93
2023-04-29T06:22:52.614Z,8.93
2023-04-29T06:23:32.738Z,9.65
2023-04-29T06:25:59.102Z,9.25
2023-04-29T06:27:52.539Z,9.25
2023-04-29T06:28:25.504Z,10.27
2023-04-29T06:30:51.905Z,8.80
2023-04-29T06:32:52.651Z,8.80
2023-04-29T06:33:20.653Z,8.68
2023-04-29T06:35:47.185Z,8.00
2023-04-29T06:37:52.567Z,8.00
2023-04-29T06:38:13.689Z,9.65
2023-04-29T06:40:39.991Z,10.05
2023-04-29T06:42:52.653Z,10.05
2023-04-29T06:43:06.359Z,9.77
2023-04-29T06:45:32.667Z,10.77
2023-04-29T06:47:52.575Z,10.77
2023-04-29T06:47:59.094Z,9.25
2023-04-29T06:50:26.163Z,9.02
2023-04-29T06:52:52.853Z,8.88
2023-04-29T06:52:53.566Z,8.88
2023-04-29T06:55:19.264Z,9.45
2023-04-29T06:57:45.768Z,11.65
2023-04-29T06:57:52.550Z,11.65
2023-04-29T07:00:12.484Z,9.98
2023-04-29T07:02:39.183Z,8.85
2023-04-29T07:02:52.609Z,8.85
2023-04-29T07:05:06.618Z,9.75
2023-04-29T07:07:33.046Z,7.85
2023-04-29T07:07:52.564Z,7.85
2023-04-29T07:09:59.434Z,9.02
2023-04-29T07:12:26.688Z,8.40
2023-04-29T07:12:52.547Z,8.40
2023-04-29T07:14:53.231Z,9.77
2023-04-29T07:17:20.645Z,8.63
2023-04-29T07:17:52.592Z,8.63
2023-04-29T07:19:47.177Z,8.60
2023-04-29T07:22:13.741Z,8.27
2023-04-29T07:22:52.556Z,8.27
2023-04-29T07:24:40.105Z,8.80
2023-04-29T07:27:06.953Z,9.20
2023-04-29T07:27:52.549Z,9.20
2023-04-29T07:29:33.513Z,8.02
2023-04-29T07:31:59.929Z,8.63
2023-04-29T07:32:52.596Z,8.63
2023-04-29T07:34:26.350Z,8.95
2023-04-29T07:36:52.671Z,8.38
2023-04-29T07:37:52.566Z,8.38
2023-04-29T07:39:19.012Z,7.95
2023-04-29T07:41:45.869Z,8.75
2023-04-29T07:42:52.643Z,8.75
2023-04-29T07:44:12.201Z,9.48
2023-04-29T07:46:38.822Z,8.48
2023-04-29T07:47:52.684Z,8.48
2023-04-29T07:49:06.889Z,9.23
2023-04-29T07:51:33.302Z,7.88
2023-04-29T07:52:52.592Z,7.88
2023-04-29T07:53:59.729Z,7.68
2023-04-29T07:56:26.352Z,7.93
2023-04-29T07:57:52.556Z,7.93
2023-04-29T07:58:52.769Z,7.10
2023-04-29T08:01:19.213Z,8.23
2023-04-29T08:02:52.832Z,8.23
2023-04-29T08:03:45.821Z,8.00
2023-04-29T08:06:12.520Z,7.03
2023-04-29T08:07:52.556Z,7.03
2023-04-29T08:08:39.079Z,8.27
2023-04-29T08:11:06.664Z,7.75
2023-04-29T08:12:52.553Z,7.75
2023-04-29T08:13:35.585Z,7.57
2023-04-29T08:16:02.020Z,7.63
2023-04-29T08:17:52.570Z,7.63
2023-04-29T08:18:28.508Z,7.78
2023-04-29T08:20:54.816Z,8.18
2023-04-29T08:22:52.572Z,8.18
2023-04-29T08:23:21.238Z,7.68
2023-04-29T08:25:47.633Z,8.68
2023-04-29T08:27:52.593Z,8.68
2023-04-29T08:28:14.043Z,7.32
2023-04-29T08:30:41.144Z,7.38
2023-04-29T08:32:52.951Z,7.38
2023-04-29T08:33:08.390Z,8.57
2023-04-29T08:35:37.801Z,8.48
2023-04-29T08:37:52.609Z,8.48
2023-04-29T08:38:08.382Z,7.55
2023-04-29T08:40:36.510Z,8.23
2023-04-29T08:42:52.696Z,8.23
2023-04-29T08:43:04.852Z,8.60
2023-04-29T08:45:32.644Z,7.47
2023-04-29T08:47:52.718Z,7.47
2023-04-29T08:48:02.251Z,8.00
2023-04-29T08:50:30.548Z,8.30
2023-04-29T08:52:52.551Z,8.30
2023-04-29T08:52:57.332Z,7.78
2023-04-29T08:55:24.599Z,7.72
2023-04-29T08:57:54.798Z,7.15
2023-04-29T08:57:54.971Z,7.15
2023-04-29T09:00:22.816Z,7.93
2023-04-29T09:02:54.166Z,7.55
2023-04-29T09:02:54.468Z,7.55
2023-04-29T09:05:21.928Z,8.25
2023-04-29T09:07:50.266Z,7.53
2023-04-29T09:07:52.567Z,7.53
2023-04-29T09:10:17.737Z,7.93
2023-04-29T09:12:44.633Z,8.50
2023-04-29T09:12:52.555Z,8.50
2023-04-29T09:15:11.290Z,7.60
2023-04-29T09:17:45.286Z,8.20
2023-04-29T09:17:52.618Z,8.20
2023-04-29T09:20:21.076Z,7.85
2023-04-29T09:23:05.413Z,8.15
2023-04-29T09:23:05.568Z,8.15
2023-04-29T09:25:31.997Z,8.25
2023-04-29T09:27:52.574Z,8.25
2023-04-29T09:27:58.432Z,8.20
2023-04-29T09:30:26.669Z,8.75
2023-04-29T09:33:07.946Z,7.95
2023-04-29T09:33:08.200Z,7.95
2023-04-29T09:35:35.103Z,8.45
2023-04-29T09:37:52.560Z,8.45
2023-04-29T09:38:18.315Z,7.70
2023-04-29T09:40:58.297Z,9.30
2023-04-29T09:42:52.584Z,9.30
2023-04-29T09:43:26.348Z,7.50
2023-04-29T09:45:52.950Z,8.73
2023-04-29T09:47:52.702Z,8.73
2023-04-29T09:48:19.477Z,9.35
2023-04-29T09:51:01.522Z,8.65
2023-04-29T09:52:52.635Z,8.65
2023-04-29T09:53:29.922Z,8.82
2023-04-29T09:56:01.528Z,7.68
2023-04-29T09:57:52.595Z,7.68
2023-04-29T09:58:39.133Z,9.38
2023-04-29T10:01:06.770Z,8.73
2023-04-29T10:02:52.713Z,8.73
2023-04-29T10:03:38.980Z,10.23
2023-04-29T10:06:07.494Z,8.32
2023-04-29T10:07:52.629Z,8.32
2023-04-29T10:08:35.105Z,9.48
2023-04-29T10:11:03.286Z,9.20
2023-04-29T10:12:52.597Z,9.20
2023-04-29T10:13:30.781Z,9.48
2023-04-29T10:16:30.126Z,9.00
2023-04-29T10:17:52.581Z,9.00
2023-04-29T10:19:00.408Z,9.73
2023-04-29T10:21:31.481Z,9.48
2023-04-29T10:22:52.588Z,9.48
2023-04-29T10:23:59.342Z,8.50
2023-04-29T10:26:29.891Z,10.25
2023-04-29T10:27:52.655Z,10.25
2023-04-29T10:29:00.257Z,10.38
2023-04-29T10:31:27.799Z,9.40
2023-04-29T10:32:53.078Z,9.40
2023-04-29T10:33:58.031Z,9.20
2023-04-29T10:36:30.232Z,10.13
2023-04-29T10:37:52.590Z,10.13
2023-04-29T10:38:59.628Z,9.30
2023-04-29T10:41:29.939Z,12.05
2023-04-29T10:42:52.619Z,12.05
2023-04-29T10:43:59.153Z,14.50
2023-04-29T10:46:26.877Z,14.10
2023-04-29T10:47:52.650Z,14.10
2023-04-29T10:49:00.328Z,12.00
2023-04-29T10:51:34.943Z,12.52
2023-04-29T10:52:52.582Z,12.52
2023-04-29T10:54:11.072Z,11.20
2023-04-29T10:56:56.392Z,12.05
2023-04-29T10:57:52.572Z,12.05
2023-04-29T10:59:42.793Z,11.45
2023-04-29T11:02:10.347Z,13.48
2023-04-29T11:02:52.741Z,13.48
2023-04-29T11:05:10.135Z,13.65
2023-04-29T11:07:36.839Z,15.63
2023-04-29T11:07:52.681Z,15.63
2023-04-29T11:10:03.944Z,18.80
2023-04-29T11:12:30.347Z,17.30
2023-04-29T11:12:52.628Z,17.30
2023-04-29T11:15:04.690Z,18.67
2023-04-29T11:17:38.387Z,19.27
2023-04-29T11:17:52.822Z,19.27
2023-04-29T11:20:10.496Z,20.75
2023-04-29T11:22:36.898Z,17.93
2023-04-29T11:22:52.673Z,17.93
2023-04-29T11:25:06.057Z,21.48
2023-04-29T11:27:34.510Z,19.25
2023-04-29T11:27:52.608Z,19.25
2023-04-29T11:30:04.926Z,19.00
2023-04-29T11:32:38.088Z,19.38
2023-04-29T11:32:52.805Z,19.38
2023-04-29T11:35:15.884Z,20.42
2023-04-29T11:37:43.644Z,19.17
2023-04-29T11:37:52.631Z,19.17
2023-04-29T11:40:12.148Z,19.48
2023-04-29T11:42:45.281Z,19.55
2023-04-29T11:42:52.619Z,19.55
2023-04-29T11:45:12.293Z,18.13
2023-04-29T11:47:44.962Z,17.02
2023-04-29T11:47:54.902Z,17.02
2023-04-29T11:50:12.431Z,17.25
2023-04-29T11:52:40.646Z,18.25
2023-04-29T11:52:52.604Z,18.25
2023-04-29T11:55:10.439Z,17.02
2023-04-29T11:57:37.162Z,16.23
2023-04-29T11:57:52.703Z,16.23
2023-04-29T12:00:05.670Z,16.52
2023-04-29T12:02:34.492Z,17.90
2023-04-29T12:02:52.794Z,17.90
2023-04-29T12:05:06.610Z,17.00
2023-04-29T12:07:33.474Z,16.63
2023-04-29T12:07:52.593Z,16.63
2023-04-29T12:10:00.056Z,18.38
2023-04-29T12:12:27.781Z,18.48
2023-04-29T12:12:52.590Z,18.48
2023-04-29T12:14:54.700Z,16.67
2023-04-29T12:17:21.519Z,14.80
2023-04-29T12:17:52.621Z,14.80
2023-04-29T12:19:49.169Z,17.17
2023-04-29T12:22:15.639Z,14.32
2023-04-29T12:22:52.629Z,14.32
2023-04-29T12:24:42.097Z,14.55
2023-04-29T12:27:10.198Z,16.10
2023-04-29T12:27:52.586Z,16.10
2023-04-29T12:29:37.767Z,15.10
2023-04-29T12:32:04.250Z,14.15
2023-04-29T12:32:52.648Z,14.15
2023-04-29T12:34:32.225Z,14.82
2023-04-29T12:37:00.303Z,13.52
2023-04-29T12:37:52.592Z,13.52
2023-04-29T12:39:27.737Z,14.75
2023-04-29T12:42:01.798Z,13.45
2023-04-29T12:42:52.621Z,13.45
2023-04-29T12:44:36.304Z,13.90
2023-04-29T12:47:13.644Z,14.25
2023-04-29T12:47:52.700Z,14.25
2023-04-29T12:49:47.180Z,13.43
2023-04-29T12:52:13.953Z,14.85
2023-04-29T12:52:52.651Z,14.85
2023-04-29T12:54:50.814Z,13.25
2023-04-29T12:57:17.438Z,13.27
2023-04-29T12:57:52.748Z,13.27
2023-04-29T12:59:43.751Z,13.13
2023-04-29T13:02:10.301Z,13.48
2023-04-29T13:02:52.807Z,13.48
2023-04-29T13:04:36.717Z,12.82
2023-04-29T13:07:04.352Z,13.45
2023-04-29T13:07:52.581Z,13.45
2023-04-29T13:09:31.243Z,13.02
2023-04-29T13:11:57.936Z,14.55
2023-04-29T13:12:52.599Z,14.55
2023-04-29T13:14:24.474Z,14.27
2023-04-29T13:16:50.911Z,13.18
2023-04-29T13:17:52.652Z,13.18
2023-04-29T13:19:28.085Z,13.23
2023-04-29T13:21:56.669Z,13.98
2023-04-29T13:22:52.663Z,13.98
2023-04-29T13:24:25.182Z,13.95
2023-04-29T13:26:52.759Z,12.90
2023-04-29T13:27:52.615Z,12.90
2023-04-29T13:29:19.249Z,12.73
2023-04-29T13:31:45.653Z,13.98
2023-04-29T13:32:57.134Z,13.98
2023-04-29T13:34:12.112Z,13.45
2023-04-29T13:36:38.688Z,14.60
2023-04-29T13:37:52.676Z,14.60
2023-04-29T13:39:05.136Z,13.20
2023-04-29T13:41:34.926Z,13.45
2023-04-29T13:42:59.528Z,13.45
2023-04-29T13:44:02.366Z,13.27
2023-04-29T13:46:31.525Z,13.65
2023-04-29T13:48:07.766Z,13.65
2023-04-29T13:49:20.728Z,14.05
2023-04-29T13:57:34.568Z,12.90
2023-04-29T13:58:40.058Z,12.90
2023-04-29T13:59:42.825Z,12.05
2023-04-29T14:02:24.958Z,11.18
2023-04-29T14:04:52.500Z,12.05
2023-04-29T14:07:19.478Z,12.95
2023-04-29T14:07:52.626Z,12.95
2023-04-29T14:09:46.405Z,13.05
2023-04-29T14:12:12.976Z,11.45
2023-04-29T14:12:52.642Z,11.45
2023-04-29T14:14:39.343Z,12.27
2023-04-29T14:17:05.981Z,12.20
2023-04-29T14:17:52.712Z,12.20
2023-04-29T14:19:32.343Z,12.88
2023-04-29T14:21:58.643Z,10.57
2023-04-29T14:22:52.579Z,10.57
2023-04-29T14:24:24.998Z,11.75
2023-04-29T14:26:52.194Z,12.20
2023-04-29T14:27:52.654Z,12.20
2023-04-29T14:29:19.041Z,12.38
2023-04-29T14:31:45.536Z,11.32
2023-04-29T14:32:52.651Z,11.32
2023-04-29T14:34:12.979Z,14.13
2023-04-29T14:36:39.366Z,12.68
2023-04-29T14:37:52.649Z,12.68
2023-04-29T14:39:05.722Z,13.57
2023-04-29T14:41:32.102Z,13.07
2023-04-29T14:42:52.687Z,13.07
2023-04-29T14:43:59.191Z,14.63
2023-04-29T14:46:25.612Z,14.68
2023-04-29T14:47:52.673Z,14.68
2023-04-29T14:48:52.048Z,15.88
2023-04-29T14:51:18.392Z,13.07
2023-04-29T14:52:52.656Z,13.07
2023-04-29T14:53:44.775Z,14.50
2023-04-29T14:56:11.173Z,12.55
2023-04-29T14:57:52.662Z,12.55
2023-04-29T14:58:37.577Z,13.73
2023-04-29T15:01:04.013Z,13.15
2023-04-29T15:02:52.681Z,13.15
2023-04-29T15:03:30.531Z,13.88
2023-04-29T15:05:58.055Z,12.68
2023-04-29T15:07:52.705Z,12.68
2023-04-29T15:08:24.633Z,14.93
2023-04-29T15:10:51.511Z,14.40
2023-04-29T15:12:52.664Z,14.40
2023-04-29T15:13:17.859Z,14.32
2023-04-29T15:15:44.306Z,14.65
2023-04-29T15:17:52.777Z,14.65
2023-04-29T15:18:10.909Z,14.48
2023-04-29T15:20:38.026Z,14.98
2023-04-29T15:22:52.694Z,14.98
2023-04-29T15:23:06.020Z,14.32
2023-04-29T15:25:34.649Z,13.65
2023-04-29T15:27:52.664Z,13.65
2023-04-29T15:28:02.228Z,13.70
2023-04-29T15:30:28.844Z,13.65
2023-04-29T15:32:52.729Z,13.65
2023-04-29T15:32:55.746Z,14.73
2023-04-29T15:35:22.384Z,14.63
2023-04-29T15:37:49.548Z,13.10
2023-04-29T15:37:52.676Z,13.10
2023-04-29T15:40:16.831Z,13.55
2023-04-29T15:42:43.520Z,12.45
2023-04-29T15:42:52.698Z,12.45
2023-04-29T15:45:10.647Z,15.00
2023-04-29T15:47:37.148Z,11.75
2023-04-29T15:47:52.784Z,11.75
2023-04-29T15:50:03.716Z,12.18
2023-04-29T15:52:30.224Z,11.18
2023-04-29T15:52:52.664Z,11.18
2023-04-29T15:54:56.602Z,11.85
2023-04-29T15:57:23.055Z,11.98
2023-04-29T15:57:52.683Z,11.98
2023-04-29T15:59:49.457Z,11.75
2023-04-29T16:02:16.001Z,11.38
2023-04-29T16:02:52.733Z,11.38
2023-04-29T16:04:42.512Z,11.20
2023-04-29T16:07:09.027Z,10.35
2023-04-29T16:07:52.664Z,10.35
2023-04-29T16:09:35.798Z,9.80
2023-04-29T16:12:02.308Z,10.93
2023-04-29T16:12:52.714Z,10.93
2023-04-29T16:14:32.654Z,10.50
2023-04-29T16:16:59.138Z,10.55
2023-04-29T16:17:52.698Z,10.55
2023-04-29T16:19:25.582Z,10.00
2023-04-29T16:21:52.082Z,9.23
2023-04-29T16:22:52.675Z,9.23
2023-04-29T16:24:18.469Z,10.60
2023-04-29T16:26:45.286Z,9.35
2023-04-29T16:27:52.660Z,9.35
2023-04-29T16:29:13.379Z,8.93
2023-04-29T16:31:40.438Z,8.63
2023-04-29T16:32:52.725Z,8.63
2023-04-29T16:34:07.106Z,9.88
2023-04-29T16:36:33.828Z,9.63
2023-04-29T16:37:52.667Z,9.63
2023-04-29T16:39:00.331Z,8.88
2023-04-29T16:41:26.874Z,9.43
2023-04-29T16:42:52.678Z,9.43
2023-04-29T16:43:53.972Z,8.68
2023-04-29T16:46:20.617Z,11.18
2023-04-29T16:47:52.729Z,11.18
2023-04-29T16:48:47.162Z,8.60
2023-04-29T16:51:13.885Z,8.55
2023-04-29T16:52:52.700Z,8.55
2023-04-29T16:53:40.296Z,9.57
2023-04-29T16:56:07.286Z,8.80
2023-04-29T16:57:52.759Z,8.80
2023-04-29T16:58:33.878Z,9.20
2023-04-29T17:01:00.425Z,8.20
2023-04-29T17:02:52.719Z,8.20
2023-04-29T17:03:29.720Z,8.68
2023-04-29T17:05:56.340Z,9.25
2023-04-29T17:07:52.670Z,9.25
2023-04-29T17:08:22.859Z,8.57
2023-04-29T17:10:49.251Z,9.48
2023-04-29T17:12:52.696Z,9.48
2023-04-29T17:13:15.596Z,9.55
2023-04-29T17:15:42.007Z,8.75
2023-04-29T17:17:52.728Z,8.75
2023-04-29T17:18:08.416Z,8.48
2023-04-29T17:20:35.089Z,8.25
2023-04-29T17:22:52.691Z,8.25
2023-04-29T17:23:01.716Z,8.85
2023-04-29T17:25:28.087Z,8.32
2023-04-29T17:27:52.705Z,8.32
2023-04-29T17:27:54.481Z,7.65
2023-04-29T17:30:21.421Z,9.15
2023-04-29T17:32:49.765Z,9.27
2023-04-29T17:32:52.720Z,9.27
2023-04-29T17:35:16.398Z,9.73
2023-04-29T17:37:42.884Z,9.18
2023-04-29T17:37:52.692Z,9.18
2023-04-29T17:40:10.903Z,9.13
2023-04-29T17:42:37.451Z,7.80
2023-04-29T17:42:52.712Z,7.80
2023-04-29T17:45:05.470Z,7.30
2023-04-29T17:47:32.079Z,10.15
2023-04-29T17:47:52.715Z,10.15
2023-04-29T17:50:00.412Z,9.10
2023-04-29T17:52:29.122Z,7.80
2023-04-29T17:52:52.678Z,7.80
2023-04-29T17:54:55.625Z,8.73
2023-04-29T17:57:21.970Z,7.90
2023-04-29T17:57:52.722Z,7.90
2023-04-29T17:59:48.374Z,7.93
2023-04-29T18:02:14.838Z,9.25
2023-04-29T18:02:52.767Z,9.25
2023-04-29T18:04:41.685Z,7.90
2023-04-29T18:07:08.157Z,7.78
2023-04-29T18:07:52.735Z,7.78
2023-04-29T18:09:34.949Z,8.23
2023-04-29T18:12:02.273Z,6.60
2023-04-29T18:12:52.682Z,6.60
2023-04-29T18:14:30.527Z,7.05
2023-04-29T18:17:01.006Z,7.72
2023-04-29T18:17:52.830Z,7.72
2023-04-29T18:19:28.313Z,7.90
2023-04-29T18:21:59.138Z,7.40
2023-04-29T18:22:52.670Z,7.40
2023-04-29T18:24:26.138Z,7.78
2023-04-29T18:26:52.636Z,7.78
2023-04-29T18:27:54.436Z,7.78
2023-04-29T18:29:19.096Z,8.00
2023-04-29T18:31:45.516Z,7.88
2023-04-29T18:32:52.782Z,7.88
2023-04-29T18:34:11.851Z,7.68
2023-04-29T18:36:38.588Z,8.25
2023-04-29T18:37:52.708Z,8.25
2023-04-29T18:39:05.054Z,7.57
2023-04-29T18:41:31.761Z,7.32
2023-04-29T18:42:52.718Z,7.32
2023-04-29T18:43:58.221Z,7.20
2023-04-29T18:46:24.763Z,8.48
2023-04-29T18:47:52.746Z,8.48
2023-04-29T18:48:51.370Z,7.75
2023-04-29T18:51:17.750Z,8.18
2023-04-29T18:52:52.732Z,8.18
2023-04-29T18:53:44.140Z,8.23
2023-04-29T18:56:10.634Z,8.05
2023-04-29T18:57:52.740Z,8.05
2023-04-29T18:58:37.110Z,7.53
2023-04-29T19:01:03.644Z,7.68
2023-04-29T19:02:52.879Z,7.68
2023-04-29T19:03:30.099Z,9.27
2023-04-29T19:05:56.983Z,7.40
2023-04-29T19:07:52.727Z,7.40
2023-04-29T19:08:24.331Z,7.40
2023-04-29T19:10:50.756Z,7.57
2023-04-29T19:12:52.702Z,7.57
2023-04-29T19:13:17.154Z,7.78
2023-04-29T19:15:43.798Z,7.75
2023-04-29T19:17:52.860Z,7.75
2023-04-29T19:18:10.341Z,8.55
2023-04-29T19:20:36.878Z,9.23
2023-04-29T19:22:52.724Z,9.23
2023-04-29T19:23:03.264Z,8.55
2023-04-29T19:25:31.408Z,7.95
2023-04-29T19:27:52.723Z,7.95
2023-04-29T19:27:58.016Z,6.78
2023-04-29T19:30:27.854Z,8.15
2023-04-29T19:32:52.729Z,8.15
2023-04-29T19:32:54.332Z,7.78
2023-04-29T19:35:20.971Z,9.77
2023-04-29T19:37:47.377Z,8.35
2023-04-29T19:37:52.705Z,8.35
2023-04-29T19:40:13.845Z,8.13
2023-04-29T19:42:40.374Z,6.95
2023-04-29T19:42:52.701Z,6.95
2023-04-29T19:45:07.865Z,8.27
2023-04-29T19:47:35.043Z,8.25
2023-04-29T19:47:52.729Z,8.25
2023-04-29T19:50:02.079Z,8.07
2023-04-29T19:52:29.830Z,7.40
2023-04-29T19:52:52.720Z,7.40
2023-04-29T19:54:56.433Z,7.82
2023-04-29T19:57:22.916Z,7.85
2023-04-29T19:57:52.718Z,7.85
2023-04-29T19:59:49.382Z,7.90
2023-04-29T20:02:16.111Z,8.23
2023-04-29T20:02:52.797Z,8.23
2023-04-29T20:04:42.872Z,8.00
2023-04-29T20:07:09.330Z,7.32
2023-04-29T20:07:52.701Z,7.32
2023-04-29T20:09:37.171Z,7.28
2023-04-29T20:12:03.985Z,9.35
2023-04-29T20:12:52.698Z,9.35
2023-04-29T20:14:30.738Z,8.35
2023-04-29T20:17:00.247Z,8.75
2023-04-29T20:17:52.765Z,8.75
2023-04-29T20:19:31.386Z,9.07
2023-04-29T20:21:57.933Z,8.05
2023-04-29T20:22:52.791Z,8.05
2023-04-29T20:24:24.718Z,7.70
2023-04-29T20:26:51.075Z,8.25
2023-04-29T20:27:52.700Z,8.25
2023-04-29T20:28:00.069Z,8.25
2023-04-29T20:29:17.394Z,7.53
2023-04-29T20:30:56.546Z,7.53
2023-04-29T20:31:43.891Z,8.43
2023-04-29T20:34:11.155Z,8.30
2023-04-29T20:34:54.097Z,8.30
2023-04-29T20:36:37.670Z,8.43
2023-04-29T20:39:04.361Z,8.57
2023-04-29T20:39:54.088Z,8.57
2023-04-29T20:40:26.431Z,8.57
2023-04-29T20:41:30.829Z,7.68
2023-04-29T20:41:35.989Z,7.68
2023-04-29T20:43:58.519Z,8.10
2023-04-29T20:46:14.834Z,8.10
2023-04-29T20:46:26.138Z,7.88
2023-04-29T20:48:53.154Z,9.25
2023-04-29T20:51:14.573Z,9.25
2023-04-29T20:51:19.534Z,8.55
2023-04-29T20:53:46.410Z,8.75
2023-04-29T20:56:13.573Z,10.32
2023-04-29T20:56:14.596Z,10.32
2023-04-29T20:57:43.119Z,10.32
2023-04-29T20:58:40.081Z,9.60
2023-04-29T21:01:06.505Z,8.90
2023-04-29T21:02:07.142Z,8.90
2023-04-29T21:03:32.912Z,9.32
2023-04-29T21:05:33.912Z,9.32
2023-04-29T21:05:59.420Z,9.25
2023-04-29T21:06:36.980Z,9.25
2023-04-29T21:08:25.906Z,8.98
2023-04-29T21:10:52.429Z,8.55
2023-04-29T21:11:36.708Z,8.55
2023-04-29T21:11:53.522Z,8.55
2023-04-29T21:13:18.891Z,9.13
2023-04-29T21:15:46.414Z,8.00
2023-04-29T21:16:52.967Z,8.00
2023-04-29T21:18:13.506Z,9.35
2023-04-29T21:20:42.691Z,7.50
2023-04-29T21:21:53.006Z,7.50
2023-04-29T21:23:09.122Z,8.60
2023-04-29T21:25:35.739Z,8.25
2023-04-29T21:26:52.966Z,8.25
2023-04-29T21:28:02.214Z,7.97
2023-04-29T21:30:28.727Z,8.27
2023-04-29T21:31:53.000Z,8.27
2023-04-29T21:32:57.717Z,8.35
2023-04-29T21:35:24.104Z,9.20